createdAt,value
2022-10-09T00:01:20.660Z,72.20
2022-10-09T00:03:50.607Z,72.30
2022-10-09T00:06:21.723Z,72.20
2022-10-09T00:08:49.595Z,72.30
2022-10-09T00:11:24.422Z,72.40
2022-10-09T00:13:53.361Z,72.60
2022-10-09T00:16:22.180Z,72.60
2022-10-09T00:18:50.304Z,72.40
2022-10-09T00:21:23.993Z,72.40
2022-10-09T00:23:53.391Z,72.60
2022-10-09T00:26:21.783Z,72.80
2022-10-09T00:28:49.825Z,72.70
2022-10-09T00:31:17.948Z,72.50
2022-10-09T00:33:45.323Z,72.40
2022-10-09T00:36:18.156Z,72.50
2022-10-09T00:38:45.838Z,72.70
2022-10-09T00:41:16.383Z,72.60
2022-10-09T00:43:50.876Z,72.60
2022-10-09T00:46:46.036Z,72.70
2022-10-09T00:49:22.395Z,72.80
2022-10-09T00:51:51.591Z,72.70
2022-10-09T00:54:24.827Z,72.50
2022-10-09T00:56:53.314Z,72.50
2022-10-09T00:59:21.340Z,72.30
2022-10-09T01:01:48.944Z,72.20
2022-10-09T01:04:16.247Z,72.10
2022-10-09T01:07:16.103Z,72.40
2022-10-09T01:10:35.250Z,72.80
2022-10-09T01:13:31.488Z,72.70
2022-10-09T01:16:24.133Z,72.50
2022-10-09T01:19:15.155Z,72.50
2022-10-09T01:21:52.880Z,72.70
2022-10-09T01:24:28.779Z,72.70
2022-10-09T01:27:11.894Z,72.70
2022-10-09T01:29:44.048Z,72.70
2022-10-09T01:32:14.352Z,72.90
2022-10-09T01:34:44.015Z,73.10
2022-10-09T01:37:13.919Z,73.20
2022-10-09T01:39:44.124Z,73.50
2022-10-09T01:42:13.940Z,73.70
2022-10-09T01:44:41.553Z,73.70
2022-10-09T01:47:15.439Z,73.80
2022-10-09T01:50:04.405Z,74.00
2022-10-09T01:52:41.281Z,74.40
2022-10-09T01:55:42.404Z,74.30
2022-10-09T01:58:12.616Z,74.70
2022-10-09T02:00:46.425Z,74.60
2022-10-09T02:03:16.060Z,74.90
2022-10-09T02:05:46.800Z,75.00
2022-10-09T02:08:18.253Z,75.10
2022-10-09T02:10:48.995Z,75.10
2022-10-09T02:13:17.755Z,75.10
2022-10-09T02:16:05.585Z,75.00
2022-10-09T02:18:40.665Z,75.10
2022-10-09T02:21:46.345Z,75.00
2022-10-09T02:24:21.625Z,74.90
2022-10-09T02:26:49.971Z,74.70
2022-10-09T02:29:17.626Z,74.30
2022-10-09T02:31:45.632Z,74.20
2022-10-09T02:34:16.807Z,74.00
2022-10-09T02:36:44.272Z,74.10
2022-10-09T02:39:11.754Z,73.80
2022-10-09T02:41:39.283Z,73.80
2022-10-09T02:44:07.184Z,74.10
2022-10-09T02:46:35.149Z,74.10
2022-10-09T02:49:02.671Z,73.80
2022-10-09T02:51:31.068Z,73.60
2022-10-09T02:53:59.609Z,73.40
2022-10-09T02:56:27.928Z,73.60
2022-10-09T02:58:55.668Z,73.90
2022-10-09T03:01:23.606Z,74.10
2022-10-09T03:03:51.150Z,74.10
2022-10-09T03:06:24.711Z,74.20
2022-10-09T03:08:53.554Z,74.40
2022-10-09T03:11:23.009Z,74.50
2022-10-09T03:13:50.843Z,75.00
2022-10-09T03:16:27.520Z,75.20
2022-10-09T03:18:55.939Z,75.50
2022-10-09T03:21:25.834Z,75.70
2022-10-09T03:23:54.382Z,75.40
2022-10-09T03:26:24.494Z,75.50
2022-10-09T03:28:53.496Z,75.40
2022-10-09T03:31:49.879Z,75.50
2022-10-09T03:34:11.935Z,75.60
2022-10-09T03:36:39.658Z,75.40
2022-10-09T03:39:07.167Z,75.50
2022-10-09T03:41:34.658Z,75.70
2022-10-09T03:44:02.328Z,75.80
2022-10-09T03:46:29.914Z,75.70
2022-10-09T03:48:57.183Z,75.50
2022-10-09T03:51:24.623Z,75.30
2022-10-09T03:53:51.956Z,75.30
2022-10-09T03:56:19.572Z,75.60
2022-10-09T03:58:47.213Z,75.80
2022-10-09T04:01:14.747Z,75.80
2022-10-09T04:03:41.987Z,75.80
2022-10-09T04:06:09.348Z,75.80
2022-10-09T04:08:36.812Z,75.80
2022-10-09T04:11:04.354Z,75.60
2022-10-09T04:13:31.659Z,75.80
2022-10-09T04:15:59.033Z,75.80
2022-10-09T04:18:26.653Z,75.60
2022-10-09T04:20:55.500Z,75.30
2022-10-09T04:23:25.614Z,75.20
2022-10-09T04:25:54.754Z,75.00
2022-10-09T04:28:23.536Z,74.80
2022-10-09T04:30:51.107Z,74.80
2022-10-09T04:33:19.039Z,75.10
2022-10-09T04:35:50.127Z,75.40
2022-10-09T04:38:18.044Z,75.30
2022-10-09T04:40:55.179Z,75.20
2022-10-09T04:43:22.581Z,75.30
2022-10-09T04:45:50.240Z,75.40
2022-10-09T04:48:18.084Z,75.40
2022-10-09T04:50:45.679Z,75.70
2022-10-09T04:53:12.968Z,75.80
2022-10-09T04:55:41.964Z,75.80
2022-10-09T04:58:11.726Z,75.90
2022-10-09T05:00:44.371Z,76.20
2022-10-09T05:03:12.310Z,76.20
2022-10-09T05:05:39.759Z,76.10
2022-10-09T05:08:07.395Z,76.00
2022-10-09T05:10:34.941Z,75.90
2022-10-09T05:13:02.346Z,75.90
2022-10-09T05:15:30.331Z,76.00
2022-10-09T05:17:57.903Z,76.00
2022-10-09T05:20:25.759Z,76.00
2022-10-09T05:22:53.146Z,76.40
2022-10-09T05:25:20.860Z,76.10
2022-10-09T05:27:48.536Z,76.20
2022-10-09T05:30:17.267Z,76.10
2022-10-09T05:32:44.505Z,75.90
2022-10-09T05:35:12.455Z,76.20
2022-10-09T05:37:39.675Z,76.30
2022-10-09T05:40:07.619Z,76.40
2022-10-09T05:42:34.972Z,76.40
2022-10-09T05:45:02.720Z,76.30
2022-10-09T05:47:30.840Z,76.00
2022-10-09T05:49:58.122Z,75.90
2022-10-09T05:52:25.300Z,76.00
2022-10-09T05:54:52.467Z,76.10
2022-10-09T05:57:19.714Z,76.30
2022-10-09T05:59:46.920Z,76.10
2022-10-09T06:02:14.281Z,76.00
2022-10-09T06:04:41.459Z,76.40
2022-10-09T06:07:10.455Z,75.80
2022-10-09T06:09:37.693Z,75.80
2022-10-09T06:12:05.240Z,75.50
2022-10-09T06:14:32.431Z,75.20
2022-10-09T06:17:01.363Z,75.00
2022-10-09T06:19:28.772Z,74.70
2022-10-09T06:21:56.301Z,74.40
2022-10-09T06:24:28.864Z,74.40
2022-10-09T06:26:57.620Z,74.20
2022-10-09T06:29:26.237Z,73.90
2022-10-09T06:31:53.838Z,74.00
2022-10-09T06:34:21.317Z,74.10
2022-10-09T06:36:49.436Z,74.30
2022-10-09T06:39:16.689Z,75.10
2022-10-09T06:41:44.040Z,74.20
2022-10-09T06:44:24.094Z,74.20
2022-10-09T06:46:51.614Z,74.00
2022-10-09T06:49:19.059Z,74.10
2022-10-09T06:51:46.556Z,74.20
2022-10-09T06:54:17.123Z,74.30
2022-10-09T06:56:45.078Z,74.50
2022-10-09T06:59:13.168Z,74.70
2022-10-09T07:01:40.879Z,74.70
2022-10-09T07:04:13.356Z,74.70
2022-10-09T07:06:44.111Z,74.40
2022-10-09T07:09:14.006Z,74.30
2022-10-09T07:11:44.412Z,73.90
2022-10-09T07:14:13.405Z,73.90
2022-10-09T07:16:43.391Z,73.70
2022-10-09T07:19:12.633Z,73.20
2022-10-09T07:21:43.676Z,72.80
2022-10-09T07:24:12.123Z,73.00
2022-10-09T07:26:42.314Z,73.10
2022-10-09T07:29:11.596Z,72.80
2022-10-09T07:31:39.223Z,72.40
2022-10-09T07:34:07.055Z,72.50
2022-10-09T07:36:35.054Z,72.40
2022-10-09T07:39:03.077Z,72.70
2022-10-09T07:41:30.718Z,72.90
2022-10-09T07:43:58.884Z,73.20
2022-10-09T07:46:33.019Z,73.00
2022-10-09T07:49:03.037Z,72.10
2022-10-09T07:51:31.308Z,71.30
2022-10-09T07:54:00.212Z,70.10
2022-10-09T07:56:33.175Z,69.40
2022-10-09T07:59:03.704Z,68.80
2022-10-09T08:01:33.608Z,69.10
2022-10-09T08:04:01.771Z,67.80
2022-10-09T08:06:29.895Z,65.70
2022-10-09T08:08:59.290Z,64.00
2022-10-09T08:11:28.775Z,61.80
2022-10-09T08:13:56.488Z,60.30
2022-10-09T08:16:25.348Z,58.80
2022-10-09T08:19:00.483Z,58.20
2022-10-09T08:21:28.872Z,56.20
2022-10-09T08:23:58.341Z,56.20
2022-10-09T08:26:28.641Z,54.90
2022-10-09T08:28:59.196Z,53.50
2022-10-09T08:31:27.721Z,52.90
2022-10-09T08:33:56.857Z,52.50
2022-10-09T08:36:25.345Z,51.30
2022-10-09T08:38:53.408Z,51.20
2022-10-09T08:41:32.552Z,50.00
2022-10-09T08:44:17.029Z,49.30
2022-10-09T08:47:03.945Z,50.60
2022-10-09T08:49:48.779Z,50.60
2022-10-09T08:52:49.726Z,50.60
2022-10-09T08:55:36.846Z,51.00
2022-10-09T08:58:05.855Z,51.20
2022-10-09T09:00:54.959Z,51.60
2022-10-09T09:03:59.285Z,52.10
2022-10-09T09:06:56.739Z,52.80
2022-10-09T09:09:53.326Z,54.00
2022-10-09T09:12:49.345Z,55.00
2022-10-09T09:15:25.832Z,55.30
2022-10-09T09:18:01.740Z,56.10
2022-10-09T09:20:54.067Z,56.40
2022-10-09T09:23:30.051Z,56.90
2022-10-09T09:25:59.499Z,57.40
2022-10-09T09:28:28.877Z,57.70
2022-10-09T09:31:01.640Z,58.00
2022-10-09T09:33:44.995Z,57.50
2022-10-09T09:36:22.287Z,56.50
2022-10-09T09:39:26.092Z,57.00
2022-10-09T09:41:41.094Z,57.00
2022-10-09T09:44:11.873Z,56.50
2022-10-09T09:46:40.133Z,56.40
2022-10-09T09:49:36.889Z,55.10
2022-10-09T09:52:08.999Z,56.20
2022-10-09T09:54:39.246Z,56.50
2022-10-09T09:57:15.877Z,55.80
2022-10-09T09:59:45.756Z,55.80
2022-10-09T10:02:18.778Z,55.50
2022-10-09T10:04:56.630Z,54.40
2022-10-09T10:07:35.911Z,54.10
2022-10-09T10:10:23.999Z,54.40
2022-10-09T10:12:54.312Z,53.90
2022-10-09T10:15:29.091Z,54.40
2022-10-09T10:18:13.890Z,53.90
2022-10-09T10:20:51.105Z,53.20
2022-10-09T10:23:34.488Z,53.90
2022-10-09T10:26:08.037Z,53.80
2022-10-09T10:29:08.779Z,53.90
2022-10-09T10:31:51.345Z,54.40
2022-10-09T10:34:54.204Z,54.60
2022-10-09T10:37:31.783Z,54.20
2022-10-09T10:40:17.406Z,53.70
2022-10-09T10:43:02.236Z,53.70
2022-10-09T10:45:49.478Z,52.80
2022-10-09T10:48:28.599Z,52.80
2022-10-09T10:51:04.135Z,52.60
2022-10-09T10:54:05.640Z,53.70
2022-10-09T10:57:07.727Z,53.10
2022-10-09T11:00:05.726Z,53.20
2022-10-09T11:03:00.164Z,53.00
2022-10-09T11:05:53.258Z,52.70
2022-10-09T11:08:42.080Z,52.80
2022-10-09T11:11:27.010Z,53.00
2022-10-09T11:14:13.717Z,52.80
2022-10-09T11:17:12.967Z,53.00
2022-10-09T11:20:06.683Z,53.30
2022-10-09T11:23:11.415Z,52.80
2022-10-09T11:26:05.641Z,53.60
2022-10-09T11:28:43.355Z,53.60
2022-10-09T11:31:29.883Z,53.40
2022-10-09T11:34:09.227Z,52.80
2022-10-09T11:36:43.803Z,53.20
2022-10-09T11:39:23.566Z,52.70
2022-10-09T11:41:53.571Z,52.70
2022-10-09T11:44:41.812Z,52.10
2022-10-09T11:47:32.412Z,52.30
2022-10-09T11:50:40.482Z,52.80
2022-10-09T11:53:15.938Z,52.60
2022-10-09T11:55:43.335Z,51.80
2022-10-09T11:58:20.127Z,52.10
2022-10-09T12:00:53.842Z,51.60
2022-10-09T12:03:33.501Z,51.40
2022-10-09T12:06:20.870Z,51.20
2022-10-09T12:09:03.276Z,51.30
2022-10-09T12:11:32.478Z,51.40
2022-10-09T12:14:05.824Z,51.80
2022-10-09T12:16:41.204Z,52.00
2022-10-09T12:19:29.391Z,50.90
2022-10-09T12:21:59.384Z,50.70
2022-10-09T12:24:31.907Z,49.60
2022-10-09T12:27:03.220Z,50.40
2022-10-09T12:29:40.511Z,50.00
2022-10-09T12:32:26.227Z,50.00
2022-10-09T12:34:55.196Z,51.10
2022-10-09T12:37:35.092Z,50.00
2022-10-09T12:40:15.335Z,49.80
2022-10-09T12:42:44.660Z,50.00
2022-10-09T12:45:26.375Z,49.90
2022-10-09T12:47:54.784Z,49.80
2022-10-09T12:50:31.579Z,48.80
2022-10-09T12:53:02.471Z,49.20
2022-10-09T12:55:35.670Z,49.80
2022-10-09T12:58:08.854Z,48.90
2022-10-09T13:00:36.245Z,48.80
2022-10-09T13:03:03.668Z,48.90
2022-10-09T13:05:42.537Z,49.60
2022-10-09T13:08:28.070Z,49.00
2022-10-09T13:11:07.106Z,49.10
2022-10-09T13:13:34.617Z,48.70
2022-10-09T13:16:06.393Z,48.60
2022-10-09T13:18:33.799Z,48.10
2022-10-09T13:21:22.764Z,48.10
2022-10-09T13:23:50.727Z,48.80
2022-10-09T13:26:29.358Z,48.40
2022-10-09T13:28:59.236Z,47.40
2022-10-09T13:31:26.671Z,47.90
2022-10-09T13:33:53.922Z,47.30
2022-10-09T13:36:21.130Z,47.30
2022-10-09T13:38:49.323Z,47.40
2022-10-09T13:41:20.748Z,48.00
2022-10-09T13:43:48.851Z,48.80
2022-10-09T13:46:16.378Z,48.10
2022-10-09T13:48:43.769Z,48.00
2022-10-09T13:51:11.595Z,47.90
2022-10-09T13:53:39.019Z,47.80
2022-10-09T13:56:07.679Z,46.80
2022-10-09T13:58:35.151Z,47.20
2022-10-09T14:01:02.695Z,47.30
2022-10-09T14:03:30.063Z,47.40
2022-10-09T14:05:59.751Z,47.00
2022-10-09T14:08:27.472Z,47.50
2022-10-09T14:10:55.280Z,46.80
2022-10-09T14:13:22.635Z,46.90
2022-10-09T14:15:50.199Z,47.40
2022-10-09T14:18:17.828Z,47.20
2022-10-09T14:20:45.894Z,47.60
2022-10-09T14:23:14.007Z,47.40
2022-10-09T14:25:41.513Z,47.20
2022-10-09T14:28:09.260Z,47.80
2022-10-09T14:30:40.836Z,47.60
2022-10-09T14:33:08.680Z,47.50
2022-10-09T14:35:36.345Z,47.40
2022-10-09T14:38:03.792Z,47.80
2022-10-09T14:40:31.142Z,48.00
2022-10-09T14:42:58.794Z,47.60
2022-10-09T14:45:26.374Z,47.00
2022-10-09T14:47:53.692Z,47.50
2022-10-09T14:50:21.331Z,47.50
2022-10-09T14:52:49.021Z,47.50
2022-10-09T14:55:16.639Z,47.60
2022-10-09T14:57:44.315Z,47.90
2022-10-09T15:00:12.699Z,48.20
2022-10-09T15:02:40.174Z,48.50
2022-10-09T15:05:08.447Z,48.00
2022-10-09T15:07:35.820Z,48.20
2022-10-09T15:10:03.433Z,48.30
2022-10-09T15:12:30.762Z,48.30
2022-10-09T15:14:57.998Z,48.60
2022-10-09T15:17:25.526Z,48.50
2022-10-09T15:19:54.048Z,48.50
2022-10-09T15:22:21.383Z,48.60
2022-10-09T15:24:49.211Z,48.90
2022-10-09T15:27:16.424Z,49.20
2022-10-09T15:29:43.606Z,49.10
2022-10-09T15:32:10.767Z,49.60
2022-10-09T15:34:41.028Z,49.40
2022-10-09T15:37:09.193Z,49.00
2022-10-09T15:39:36.555Z,49.20
2022-10-09T15:42:04.052Z,49.20
2022-10-09T15:44:31.272Z,49.20
2022-10-09T15:46:58.682Z,49.10
2022-10-09T15:49:25.995Z,49.10
2022-10-09T15:51:53.327Z,49.10
2022-10-09T15:54:20.651Z,49.20
2022-10-09T15:56:47.863Z,49.70
2022-10-09T15:59:17.016Z,49.60
2022-10-09T16:01:44.568Z,49.90
2022-10-09T16:04:12.185Z,50.00
2022-10-09T16:06:39.580Z,50.10
2022-10-09T16:09:07.470Z,50.50
2022-10-09T16:11:34.993Z,50.60
2022-10-09T16:14:02.736Z,50.90
2022-10-09T16:16:30.446Z,51.20
2022-10-09T16:18:58.310Z,51.00
2022-10-09T16:21:28.355Z,51.30
2022-10-09T16:23:59.077Z,51.40
2022-10-09T16:26:28.723Z,51.60
2022-10-09T16:28:56.293Z,51.90
2022-10-09T16:31:30.138Z,52.00
2022-10-09T16:33:58.397Z,52.30
2022-10-09T16:36:26.238Z,52.50
2022-10-09T16:38:54.283Z,53.20
2022-10-09T16:41:22.879Z,52.70
2022-10-09T16:43:53.242Z,52.80
2022-10-09T16:46:30.316Z,53.10
2022-10-09T16:48:58.780Z,53.30
2022-10-09T16:51:29.600Z,53.30
2022-10-09T16:53:59.679Z,53.40
2022-10-09T16:56:32.779Z,53.70
2022-10-09T16:59:04.233Z,54.00
2022-10-09T17:01:32.445Z,54.30
2022-10-09T17:04:00.400Z,54.50
2022-10-09T17:06:28.101Z,54.90
2022-10-09T17:08:57.475Z,55.10
2022-10-09T17:11:26.675Z,55.40
2022-10-09T17:13:57.797Z,56.00
2022-10-09T17:16:29.335Z,56.20
2022-10-09T17:18:57.510Z,56.20
2022-10-09T17:21:27.907Z,56.10
2022-10-09T17:24:00.450Z,56.30
2022-10-09T17:26:29.384Z,56.40
2022-10-09T17:29:00.613Z,56.40
2022-10-09T17:31:28.873Z,56.60
2022-10-09T17:34:00.714Z,56.60
2022-10-09T17:36:30.317Z,56.80
2022-10-09T17:38:57.981Z,56.80
2022-10-09T17:41:26.823Z,57.20
2022-10-09T17:43:55.771Z,58.00
2022-10-09T17:46:24.283Z,58.00
2022-10-09T17:48:56.619Z,58.60
2022-10-09T17:51:25.932Z,58.20
2022-10-09T17:53:54.655Z,58.30
2022-10-09T17:56:22.286Z,58.60
2022-10-09T17:58:50.103Z,58.70
2022-10-09T18:01:18.663Z,59.00
2022-10-09T18:03:46.120Z,59.40
2022-10-09T18:06:17.341Z,59.30
2022-10-09T18:08:45.517Z,59.70
2022-10-09T18:11:16.336Z,59.60
2022-10-09T18:13:45.488Z,60.00
2022-10-09T18:16:24.010Z,60.50
2022-10-09T18:18:51.685Z,60.60
2022-10-09T18:21:19.175Z,60.80
2022-10-09T18:23:47.386Z,61.60
2022-10-09T18:26:17.263Z,61.40
2022-10-09T18:28:48.293Z,61.70
2022-10-09T18:31:20.010Z,61.60
2022-10-09T18:33:47.932Z,62.10
2022-10-09T18:36:20.217Z,61.90
2022-10-09T18:38:55.724Z,62.40
2022-10-09T18:41:23.886Z,62.60
2022-10-09T18:43:53.881Z,62.10
2022-10-09T18:46:24.686Z,62.30
2022-10-09T18:48:54.063Z,62.50
2022-10-09T18:51:25.347Z,62.50
2022-10-09T18:53:55.938Z,62.20
2022-10-09T18:56:23.835Z,62.10
2022-10-09T18:58:52.332Z,62.10
2022-10-09T19:01:20.240Z,62.50
2022-10-09T19:03:50.105Z,63.10
2022-10-09T19:06:19.288Z,62.50
2022-10-09T19:08:47.232Z,62.40
2022-10-09T19:11:14.872Z,62.30
2022-10-09T19:13:43.442Z,62.20
2022-10-09T19:16:10.968Z,62.50
2022-10-09T19:18:39.321Z,62.60
2022-10-09T19:21:07.255Z,62.30
2022-10-09T19:23:34.680Z,62.00
2022-10-09T19:26:02.307Z,62.10
2022-10-09T19:28:36.951Z,62.70
2022-10-09T19:31:05.877Z,62.60
2022-10-09T19:33:33.785Z,62.50
2022-10-09T19:36:01.355Z,62.50
2022-10-09T19:38:28.817Z,62.50
2022-10-09T19:41:01.951Z,62.60
2022-10-09T19:43:29.431Z,62.70
2022-10-09T19:46:25.327Z,62.80
2022-10-09T19:48:52.948Z,63.10
2022-10-09T19:51:23.896Z,62.70
2022-10-09T19:53:53.379Z,63.00
2022-10-09T19:56:25.976Z,63.00
2022-10-09T19:58:54.282Z,62.80
2022-10-09T20:01:25.374Z,62.80
2022-10-09T20:03:55.676Z,62.60
2022-10-09T20:06:23.085Z,62.60
2022-10-09T20:08:50.627Z,62.70
2022-10-09T20:11:20.260Z,62.80
2022-10-09T20:13:52.081Z,62.60
2022-10-09T20:16:23.462Z,62.50
2022-10-09T20:18:50.889Z,62.50
2022-10-09T20:21:19.513Z,62.50
2022-10-09T20:23:46.950Z,62.70
2022-10-09T20:26:16.829Z,62.70
2022-10-09T20:28:45.411Z,62.50
2022-10-09T20:31:18.592Z,62.30
2022-10-09T20:33:47.193Z,62.60
2022-10-09T20:36:24.692Z,62.50
2022-10-09T20:38:55.350Z,62.50
2022-10-09T20:41:23.276Z,62.50
2022-10-09T20:43:52.820Z,62.80
2022-10-09T20:46:21.367Z,63.00
2022-10-09T20:48:48.738Z,63.30
2022-10-09T20:51:17.044Z,63.20
2022-10-09T20:53:44.814Z,63.10
2022-10-09T20:56:14.514Z,63.10
2022-10-09T20:58:42.659Z,63.00
2022-10-09T21:01:11.823Z,63.00
2022-10-09T21:03:39.411Z,62.70
2022-10-09T21:06:09.752Z,62.60
2022-10-09T21:08:38.123Z,62.60
2022-10-09T21:11:07.763Z,62.70
2022-10-09T21:13:36.178Z,62.70
2022-10-09T21:16:09.119Z,62.50
2022-10-09T21:18:37.257Z,62.40
2022-10-09T21:21:06.751Z,62.30
2022-10-09T21:23:34.082Z,62.30
2022-10-09T21:26:01.634Z,62.30
2022-10-09T21:28:29.275Z,62.10
2022-10-09T21:30:56.720Z,61.90
2022-10-09T21:33:24.151Z,61.80
2022-10-09T21:35:55.289Z,61.70
2022-10-09T21:38:23.779Z,61.60
2022-10-09T21:40:51.422Z,61.70
2022-10-09T21:43:18.989Z,61.60
2022-10-09T21:45:49.850Z,61.60
2022-10-09T21:48:17.823Z,61.60
2022-10-09T21:50:45.475Z,61.40
2022-10-09T21:53:13.111Z,61.40
2022-10-09T21:55:40.854Z,61.30
2022-10-09T21:58:08.694Z,61.50
2022-10-09T22:00:36.463Z,61.50
2022-10-09T22:03:04.052Z,61.40
2022-10-09T22:05:31.491Z,61.40
2022-10-09T22:07:59.068Z,61.40
2022-10-09T22:10:26.481Z,61.50
2022-10-09T22:12:54.167Z,61.50
2022-10-09T22:15:21.645Z,61.60
2022-10-09T22:17:49.059Z,61.80
2022-10-09T22:20:16.532Z,61.60
2022-10-09T22:22:43.986Z,61.40
2022-10-09T22:25:11.681Z,61.30
2022-10-09T22:27:39.068Z,61.30
2022-10-09T22:30:07.177Z,61.20
2022-10-09T22:32:34.575Z,61.10
2022-10-09T22:35:01.849Z,61.10
2022-10-09T22:37:29.064Z,61.00
2022-10-09T22:39:56.579Z,61.10
2022-10-09T22:42:23.971Z,60.80
2022-10-09T22:44:51.385Z,60.80
2022-10-09T22:47:18.784Z,61.50
2022-10-09T22:49:46.118Z,60.80
2022-10-09T22:52:13.355Z,60.80
2022-10-09T22:54:40.600Z,60.60
2022-10-09T22:57:07.816Z,60.50
2022-10-09T22:59:35.283Z,60.50
2022-10-09T23:02:02.889Z,60.40
2022-10-09T23:04:30.068Z,60.30
2022-10-09T23:06:59.090Z,60.40
2022-10-09T23:09:31.317Z,60.50
2022-10-09T23:11:59.657Z,60.90
2022-10-09T23:14:27.471Z,60.70
2022-10-09T23:16:54.818Z,60.60
2022-10-09T23:19:22.219Z,60.50
2022-10-09T23:21:49.801Z,60.60
2022-10-09T23:24:17.885Z,60.40
2022-10-09T23:26:46.414Z,60.70
2022-10-09T23:29:17.135Z,60.50
2022-10-09T23:31:45.341Z,60.40
2022-10-09T23:34:12.889Z,60.50
2022-10-09T23:36:40.558Z,60.60
2022-10-09T23:39:07.844Z,60.50
2022-10-09T23:41:35.542Z,60.50
2022-10-09T23:44:03.766Z,60.30
2022-10-09T23:46:37.528Z,60.70
2022-10-09T23:49:05.243Z,60.80
2022-10-09T23:51:32.846Z,60.70
2022-10-09T23:54:00.400Z,60.50
2022-10-09T23:56:30.643Z,60.60
2022-10-09T23:58:59.286Z,60.30
